createdAt,value
2018-12-30T00:01:45.111Z,5.40
2018-12-30T00:04:16.135Z,5.40
2018-12-30T00:06:47.440Z,5.40
2018-12-30T00:09:19.059Z,5.40
2018-12-30T00:11:50.514Z,5.40
2018-12-30T00:14:21.387Z,5.40
2018-12-30T00:16:52.609Z,5.50
2018-12-30T00:19:24.627Z,5.40
2018-12-30T00:21:56.370Z,5.40
2018-12-30T00:24:27.827Z,5.40
2018-12-30T00:26:58.598Z,5.40
2018-12-30T00:29:30.318Z,5.40
2018-12-30T00:32:01.454Z,5.40
2018-12-30T00:34:34.802Z,5.40
2018-12-30T00:37:05.995Z,5.40
2018-12-30T00:39:37.313Z,5.40
2018-12-30T00:42:08.779Z,5.40
2018-12-30T00:44:40.411Z,5.40
2018-12-30T00:47:11.501Z,5.40
2018-12-30T00:49:44.067Z,5.40
2018-12-30T00:52:14.902Z,5.40
2018-12-30T00:54:45.602Z,5.40
2018-12-30T00:57:18.969Z,5.30
2018-12-30T00:59:51.125Z,5.30
2018-12-30T01:02:22.548Z,5.30
2018-12-30T01:04:54.860Z,5.30
2018-12-30T01:07:25.602Z,5.30
2018-12-30T01:09:58.748Z,5.30
2018-12-30T01:12:30.385Z,5.30
2018-12-30T01:15:04.191Z,5.40
2018-12-30T01:17:38.301Z,5.30
2018-12-30T01:20:08.681Z,5.40
2018-12-30T01:22:41.371Z,5.30
2018-12-30T01:25:12.438Z,5.40
2018-12-30T01:27:43.546Z,5.40
2018-12-30T01:30:14.582Z,5.40
2018-12-30T01:32:46.073Z,5.30
2018-12-30T01:35:16.814Z,5.30
2018-12-30T01:37:47.335Z,5.30
2018-12-30T01:40:19.366Z,5.30
2018-12-30T01:42:49.990Z,5.40
2018-12-30T01:45:22.441Z,5.30
2018-12-30T01:47:53.677Z,5.40
2018-12-30T01:50:25.024Z,5.40
2018-12-30T01:52:57.631Z,5.40
2018-12-30T01:55:28.809Z,5.40
2018-12-30T01:57:59.974Z,5.40
2018-12-30T02:00:30.778Z,5.30
2018-12-30T02:03:01.897Z,5.30
2018-12-30T02:05:33.532Z,5.40
2018-12-30T02:08:04.406Z,5.30
2018-12-30T02:10:35.565Z,5.30
2018-12-30T02:13:08.317Z,5.30
2018-12-30T02:15:38.996Z,5.30
2018-12-30T02:18:10.091Z,5.30
2018-12-30T02:20:42.156Z,5.30
2018-12-30T02:23:13.232Z,5.30
2018-12-30T02:25:44.121Z,5.30
2018-12-30T02:28:15.901Z,5.30
2018-12-30T02:30:46.788Z,5.30
2018-12-30T02:33:17.510Z,5.30
2018-12-30T02:35:49.052Z,5.30
2018-12-30T02:38:20.100Z,5.30
2018-12-30T02:40:50.779Z,5.30
2018-12-30T02:43:21.313Z,5.30
2018-12-30T02:45:51.870Z,5.30
2018-12-30T02:48:24.343Z,5.30
2018-12-30T02:50:58.183Z,5.30
2018-12-30T02:53:29.970Z,5.30
2018-12-30T02:56:00.786Z,5.30
2018-12-30T02:58:33.084Z,5.30
2018-12-30T03:01:04.023Z,5.30
2018-12-30T03:03:35.640Z,5.30
2018-12-30T03:06:07.075Z,5.30
2018-12-30T03:08:37.542Z,5.30
2018-12-30T03:11:09.993Z,5.30
2018-12-30T03:13:40.836Z,5.30
2018-12-30T03:16:11.805Z,5.30
2018-12-30T03:18:42.684Z,5.30
2018-12-30T03:21:13.670Z,5.30
2018-12-30T03:23:44.198Z,5.30
2018-12-30T03:26:15.153Z,5.30
2018-12-30T03:28:45.839Z,5.30
2018-12-30T03:31:16.496Z,5.30
2018-12-30T03:33:48.560Z,5.30
2018-12-30T03:36:19.727Z,5.30
2018-12-30T03:38:50.414Z,5.30
2018-12-30T03:41:22.713Z,5.30
2018-12-30T03:43:53.513Z,5.20
2018-12-30T03:46:24.790Z,5.20
2018-12-30T03:48:55.331Z,5.20
2018-12-30T03:51:26.854Z,5.30
2018-12-30T03:53:58.438Z,5.20
2018-12-30T03:56:29.752Z,5.20
2018-12-30T03:59:00.336Z,5.20
2018-12-30T04:01:31.641Z,5.20
2018-12-30T04:04:02.346Z,5.20
2018-12-30T04:06:32.906Z,5.30
2018-12-30T04:09:06.126Z,5.30
2018-12-30T04:11:37.792Z,5.20
2018-12-30T04:14:08.935Z,5.20
2018-12-30T04:16:39.670Z,5.20
2018-12-30T04:19:11.397Z,5.20
2018-12-30T04:21:42.073Z,5.20
2018-12-30T04:24:13.140Z,5.20
2018-12-30T04:26:44.480Z,5.20
2018-12-30T04:29:15.548Z,5.20
2018-12-30T04:31:46.356Z,5.20
2018-12-30T04:34:17.899Z,5.20
2018-12-30T04:36:49.542Z,5.20
2018-12-30T04:39:20.110Z,5.20
2018-12-30T04:41:51.423Z,5.20
2018-12-30T04:44:22.759Z,5.20
2018-12-30T04:46:54.018Z,5.20
2018-12-30T04:49:25.164Z,5.20
2018-12-30T04:51:56.766Z,5.20
2018-12-30T04:54:28.278Z,5.20
2018-12-30T04:56:59.545Z,5.20
2018-12-30T04:59:30.758Z,5.20
2018-12-30T05:02:01.425Z,5.20
2018-12-30T05:04:34.134Z,5.20
2018-12-30T05:07:04.609Z,5.20
2018-12-30T05:09:35.890Z,5.20
2018-12-30T05:12:09.032Z,5.20
2018-12-30T05:14:40.475Z,5.20
2018-12-30T05:17:11.052Z,5.20
2018-12-30T05:19:42.050Z,5.20
2018-12-30T05:22:12.678Z,5.20
2018-12-30T05:24:43.645Z,5.20
2018-12-30T05:27:14.246Z,5.20
2018-12-30T05:29:45.894Z,5.20
2018-12-30T05:32:16.520Z,5.20
2018-12-30T05:34:47.796Z,5.20
2018-12-30T05:37:18.891Z,5.20
2018-12-30T05:39:49.354Z,5.20
2018-12-30T05:42:19.984Z,5.20
2018-12-30T05:44:50.447Z,5.20
2018-12-30T05:47:21.119Z,5.20
2018-12-30T05:49:53.378Z,5.20
2018-12-30T05:52:24.891Z,5.20
2018-12-30T05:54:55.499Z,5.20
2018-12-30T05:57:26.254Z,5.20
2018-12-30T05:59:57.095Z,5.20
2018-12-30T06:02:28.514Z,5.20
2018-12-30T06:04:59.399Z,5.20
2018-12-30T06:07:30.674Z,5.20
2018-12-30T06:10:01.471Z,5.20
2018-12-30T06:12:32.472Z,5.20
2018-12-30T06:15:02.903Z,5.20
2018-12-30T06:17:33.933Z,5.20
2018-12-30T06:20:04.771Z,5.20
2018-12-30T06:22:35.946Z,5.20
2018-12-30T06:25:07.974Z,5.20
2018-12-30T06:27:39.472Z,5.20
2018-12-30T06:30:10.247Z,5.20
2018-12-30T06:32:41.292Z,5.20
2018-12-30T06:35:12.275Z,5.20
2018-12-30T06:37:43.716Z,5.20
2018-12-30T06:40:14.190Z,5.20
2018-12-30T06:42:44.811Z,5.20
2018-12-30T06:45:15.430Z,5.20
2018-12-30T06:47:46.690Z,5.20
2018-12-30T06:50:17.029Z,5.20
2018-12-30T06:52:47.857Z,5.20
2018-12-30T06:55:18.574Z,5.20
2018-12-30T06:57:49.496Z,5.20
2018-12-30T07:00:20.005Z,5.20
2018-12-30T07:02:50.914Z,5.20
2018-12-30T07:05:21.862Z,5.20
2018-12-30T07:07:52.471Z,5.20
2018-12-30T07:10:23.563Z,5.20
2018-12-30T07:12:54.418Z,5.20
2018-12-30T07:15:25.573Z,5.20
2018-12-30T07:17:56.604Z,5.20
2018-12-30T07:20:28.016Z,5.20
2018-12-30T07:23:05.796Z,5.20
2018-12-30T07:25:31.423Z,5.30
2018-12-30T07:28:02.368Z,5.20
2018-12-30T07:30:33.144Z,5.20
2018-12-30T07:33:03.627Z,5.20
2018-12-30T07:35:34.254Z,5.20
2018-12-30T07:38:05.075Z,5.20
2018-12-30T07:40:35.857Z,5.20
2018-12-30T07:43:06.830Z,5.20
2018-12-30T07:45:37.335Z,5.20
2018-12-30T07:48:08.350Z,5.20
2018-12-30T07:50:40.278Z,5.20
2018-12-30T07:53:13.811Z,5.20
2018-12-30T07:55:43.955Z,5.20
2018-12-30T07:58:15.774Z,5.20
2018-12-30T08:00:46.342Z,5.20
2018-12-30T08:03:17.156Z,5.30
2018-12-30T08:05:47.757Z,5.30
2018-12-30T08:08:18.609Z,5.40
2018-12-30T08:10:49.017Z,5.40
2018-12-30T08:13:19.486Z,5.40
2018-12-30T08:15:50.403Z,5.40
2018-12-30T08:18:21.227Z,5.40
2018-12-30T08:20:52.004Z,5.50
2018-12-30T08:23:23.783Z,5.50
2018-12-30T08:25:54.841Z,5.50
2018-12-30T08:28:25.775Z,5.60
2018-12-30T08:30:59.213Z,5.60
2018-12-30T08:33:30.587Z,5.60
2018-12-30T08:36:01.141Z,5.70
2018-12-30T08:38:31.674Z,5.80
2018-12-30T08:41:02.512Z,5.80
2018-12-30T08:43:33.530Z,5.90
2018-12-30T08:46:04.468Z,6.00
2018-12-30T08:48:34.754Z,5.90
2018-12-30T08:51:05.176Z,5.90
2018-12-30T08:53:36.316Z,6.00
2018-12-30T08:56:07.041Z,6.00
2018-12-30T08:58:37.547Z,6.00
2018-12-30T09:01:09.203Z,6.00
2018-12-30T09:03:40.081Z,6.00
2018-12-30T09:06:10.680Z,6.00
2018-12-30T09:08:41.054Z,6.00
2018-12-30T09:11:11.875Z,6.00
2018-12-30T09:13:42.213Z,6.00
2018-12-30T09:16:13.290Z,5.90
2018-12-30T09:18:44.934Z,6.00
2018-12-30T09:21:15.485Z,6.00
2018-12-30T09:23:45.954Z,6.00
2018-12-30T09:26:17.268Z,6.00
2018-12-30T09:28:48.152Z,6.00
2018-12-30T09:31:23.883Z,6.00
2018-12-30T09:33:54.334Z,5.90
2018-12-30T09:36:24.741Z,5.90
2018-12-30T09:38:55.613Z,5.80
2018-12-30T09:41:26.358Z,5.80
2018-12-30T09:43:57.150Z,5.80
2018-12-30T09:46:27.639Z,5.80
2018-12-30T09:48:58.718Z,5.80
2018-12-30T09:51:29.140Z,5.80
2018-12-30T09:54:00.070Z,5.80
2018-12-30T09:56:30.638Z,5.80
2018-12-30T09:59:01.279Z,5.90
2018-12-30T10:01:31.880Z,5.80
2018-12-30T10:04:02.734Z,5.80
2018-12-30T10:06:33.099Z,5.70
2018-12-30T10:09:05.662Z,5.70
2018-12-30T10:11:37.775Z,5.70
2018-12-30T10:14:08.723Z,5.70
2018-12-30T10:16:39.407Z,5.70
2018-12-30T10:19:12.312Z,5.70
2018-12-30T10:21:43.165Z,5.60
2018-12-30T10:24:13.904Z,5.70
2018-12-30T10:26:45.164Z,5.60
2018-12-30T10:29:16.543Z,5.60
2018-12-30T10:31:48.592Z,5.60
2018-12-30T10:34:20.842Z,5.60
2018-12-30T10:36:51.528Z,5.50
2018-12-30T10:39:22.898Z,5.50
2018-12-30T10:41:53.842Z,5.40
2018-12-30T10:44:25.190Z,5.40
2018-12-30T10:46:55.633Z,5.30
2018-12-30T10:49:27.203Z,5.40
2018-12-30T10:51:58.653Z,5.30
2018-12-30T10:54:28.969Z,5.30
2018-12-30T10:56:59.778Z,5.30
2018-12-30T10:59:30.259Z,5.30
2018-12-30T11:02:01.082Z,5.40
2018-12-30T11:04:31.728Z,5.40
2018-12-30T11:07:02.511Z,5.40
2018-12-30T11:09:33.052Z,5.40
2018-12-30T11:12:03.476Z,5.40
2018-12-30T11:14:35.026Z,5.40
2018-12-30T11:17:05.619Z,5.40
2018-12-30T11:19:36.193Z,5.40
2018-12-30T11:22:07.246Z,5.30
2018-12-30T11:24:38.091Z,5.30
2018-12-30T11:27:08.946Z,5.30
2018-12-30T11:29:39.508Z,5.20
2018-12-30T11:32:11.123Z,5.10
2018-12-30T11:34:41.955Z,5.10
2018-12-30T11:37:12.971Z,5.10
2018-12-30T11:39:43.819Z,5.10
2018-12-30T11:42:14.253Z,5.10
2018-12-30T11:44:45.867Z,5.10
2018-12-30T11:47:16.845Z,5.10
2018-12-30T11:49:49.069Z,5.10
2018-12-30T11:52:19.882Z,5.10
2018-12-30T11:54:50.446Z,5.10
2018-12-30T11:57:20.973Z,5.10
2018-12-30T11:59:52.092Z,5.10
2018-12-30T12:02:24.135Z,5.10
2018-12-30T12:04:56.197Z,5.10
2018-12-30T12:07:26.816Z,5.10
2018-12-30T12:09:58.141Z,5.00
2018-12-30T12:12:29.740Z,5.00
2018-12-30T12:15:01.336Z,4.90
2018-12-30T12:17:32.194Z,4.90
2018-12-30T12:20:03.146Z,4.80
2018-12-30T12:22:34.170Z,4.80
2018-12-30T12:25:05.860Z,4.80
2018-12-30T12:27:36.375Z,4.70
2018-12-30T12:30:08.727Z,4.80
2018-12-30T12:32:40.006Z,4.70
2018-12-30T12:35:10.946Z,4.70
2018-12-30T12:37:41.909Z,4.80
2018-12-30T12:40:12.696Z,4.70
2018-12-30T12:42:43.587Z,4.70
2018-12-30T12:45:14.730Z,4.70
2018-12-30T12:47:46.183Z,4.70
2018-12-30T12:50:17.062Z,4.60
2018-12-30T12:52:47.759Z,4.60
2018-12-30T12:55:19.051Z,4.60
2018-12-30T12:57:49.891Z,4.60
2018-12-30T13:00:20.561Z,4.60
2018-12-30T13:02:51.491Z,4.60
2018-12-30T13:05:22.152Z,4.60
2018-12-30T13:07:53.613Z,4.60
2018-12-30T13:10:24.568Z,4.60
2018-12-30T13:12:55.680Z,4.60
2018-12-30T13:15:26.595Z,4.60
2018-12-30T13:17:57.527Z,4.60
2018-12-30T13:20:28.410Z,4.60
2018-12-30T13:22:59.969Z,4.60
2018-12-30T13:25:30.384Z,4.60
2018-12-30T13:28:01.719Z,4.60
2018-12-30T13:30:32.576Z,4.60
2018-12-30T13:33:03.523Z,4.70
2018-12-30T13:35:35.044Z,4.60
2018-12-30T13:38:07.236Z,4.60
2018-12-30T13:40:39.428Z,4.60
2018-12-30T13:43:11.424Z,4.60
2018-12-30T13:45:43.685Z,4.50
2018-12-30T13:48:15.234Z,4.60
2018-12-30T13:50:46.673Z,4.60
2018-12-30T13:53:17.588Z,4.60
2018-12-30T13:55:48.822Z,4.50
2018-12-30T13:58:22.257Z,4.50
2018-12-30T14:00:54.239Z,4.50
2018-12-30T14:03:25.635Z,4.50
2018-12-30T14:05:59.237Z,4.50
2018-12-30T14:08:33.171Z,4.50
2018-12-30T14:11:05.583Z,4.50
2018-12-30T14:13:37.798Z,4.50
2018-12-30T14:16:11.094Z,4.50
2018-12-30T14:18:43.020Z,4.50
2018-12-30T14:21:15.144Z,4.50
2018-12-30T14:23:46.024Z,4.40
2018-12-30T14:26:16.587Z,4.40
2018-12-30T14:28:47.996Z,4.40
2018-12-30T14:31:19.349Z,4.50
2018-12-30T14:33:51.421Z,4.40
2018-12-30T14:36:24.153Z,4.40
2018-12-30T14:38:55.592Z,4.40
2018-12-30T14:41:26.313Z,4.40
2018-12-30T14:43:58.166Z,4.40
2018-12-30T14:46:34.726Z,4.40
2018-12-30T14:49:02.734Z,4.40
2018-12-30T14:51:33.748Z,4.40
2018-12-30T14:54:05.057Z,4.40
2018-12-30T14:56:35.523Z,4.40
2018-12-30T14:59:07.141Z,4.50
2018-12-30T15:01:38.775Z,4.40
2018-12-30T15:04:13.918Z,4.40
2018-12-30T15:06:44.852Z,4.40
2018-12-30T15:09:16.977Z,4.50
2018-12-30T15:11:49.847Z,4.40
2018-12-30T15:14:21.260Z,4.40
2018-12-30T15:16:53.428Z,4.50
2018-12-30T15:19:28.255Z,4.50
2018-12-30T15:22:05.489Z,4.50
2018-12-30T15:24:38.270Z,4.50
2018-12-30T15:27:10.605Z,4.40
2018-12-30T15:29:41.587Z,4.40
2018-12-30T15:32:13.639Z,4.40
2018-12-30T15:34:48.509Z,4.50
2018-12-30T15:37:20.704Z,4.50
2018-12-30T15:39:51.570Z,4.50
2018-12-30T15:42:23.473Z,4.50
2018-12-30T15:44:54.267Z,4.50
2018-12-30T15:47:25.498Z,4.50
2018-12-30T15:49:56.653Z,4.50
2018-12-30T15:52:28.158Z,4.50
2018-12-30T15:54:59.792Z,4.50
2018-12-30T15:57:31.579Z,4.50
2018-12-30T16:00:02.870Z,4.50
2018-12-30T16:02:36.564Z,4.50
2018-12-30T16:05:08.241Z,4.60
2018-12-30T16:07:40.875Z,4.60
2018-12-30T16:10:12.107Z,4.50
2018-12-30T16:12:43.084Z,4.60
2018-12-30T16:15:16.313Z,4.60
2018-12-30T16:17:47.216Z,4.60
2018-12-30T16:20:18.458Z,4.60
2018-12-30T16:22:50.131Z,4.60
2018-12-30T16:25:27.100Z,4.60
2018-12-30T16:27:53.959Z,4.60
2018-12-30T16:30:24.931Z,4.60
2018-12-30T16:32:55.702Z,4.60
2018-12-30T16:35:27.599Z,4.70
2018-12-30T16:37:59.126Z,4.70
2018-12-30T16:40:30.753Z,4.70
2018-12-30T16:43:02.867Z,4.70
2018-12-30T16:45:33.566Z,4.60
2018-12-30T16:48:05.318Z,4.70
2018-12-30T16:50:37.265Z,4.70
2018-12-30T16:53:08.503Z,4.70
2018-12-30T16:55:39.223Z,4.70
2018-12-30T16:58:10.320Z,4.70
2018-12-30T17:00:43.158Z,4.70
2018-12-30T17:03:17.558Z,4.80
2018-12-30T17:05:51.527Z,4.80
2018-12-30T17:08:22.635Z,4.80
2018-12-30T17:10:59.415Z,4.80
2018-12-30T17:13:30.323Z,4.80
2018-12-30T17:16:02.177Z,4.80
2018-12-30T17:18:33.950Z,4.80
2018-12-30T17:21:04.947Z,4.80
2018-12-30T17:23:36.367Z,4.90
2018-12-30T17:26:07.859Z,4.90
2018-12-30T17:28:38.632Z,4.80
2018-12-30T17:31:09.242Z,4.90
2018-12-30T17:33:40.704Z,4.90
2018-12-30T17:36:13.680Z,4.90
2018-12-30T17:38:44.510Z,4.90
2018-12-30T17:41:15.303Z,4.90
2018-12-30T17:43:46.778Z,4.90
2018-12-30T17:46:18.731Z,5.00
2018-12-30T17:48:50.526Z,5.00
2018-12-30T17:51:21.277Z,5.00
2018-12-30T17:53:52.029Z,5.00
2018-12-30T17:56:22.847Z,5.00
2018-12-30T17:58:54.932Z,5.00
2018-12-30T18:01:26.548Z,5.00
2018-12-30T18:03:58.901Z,5.10
2018-12-30T18:06:29.792Z,5.10
2018-12-30T18:09:01.103Z,5.10
2018-12-30T18:11:34.128Z,5.10
2018-12-30T18:14:08.127Z,5.10
2018-12-30T18:16:46.505Z,5.10
2018-12-30T18:19:18.954Z,5.20
2018-12-30T18:21:50.943Z,5.20
2018-12-30T18:24:21.453Z,5.20
2018-12-30T18:26:52.182Z,5.20
2018-12-30T18:29:23.187Z,5.30
2018-12-30T18:31:53.746Z,5.30
2018-12-30T18:34:24.444Z,5.30
2018-12-30T18:36:56.097Z,5.30
2018-12-30T18:39:27.182Z,5.30
2018-12-30T18:41:58.635Z,5.40
2018-12-30T18:44:29.629Z,5.40
2018-12-30T18:47:00.327Z,5.40
2018-12-30T18:49:30.929Z,5.40
2018-12-30T18:52:01.316Z,5.40
2018-12-30T18:54:34.501Z,5.40
2018-12-30T18:57:06.944Z,5.40
2018-12-30T18:59:37.356Z,5.40
2018-12-30T19:02:08.267Z,5.40
2018-12-30T19:04:40.675Z,5.40
2018-12-30T19:07:11.238Z,5.40
2018-12-30T19:09:42.290Z,5.40
2018-12-30T19:12:14.441Z,5.40
2018-12-30T19:14:45.175Z,5.40
2018-12-30T19:17:15.865Z,5.30
2018-12-30T19:19:47.132Z,5.30
2018-12-30T19:22:18.523Z,5.30
2018-12-30T19:24:50.305Z,5.30
2018-12-30T19:27:21.095Z,5.30
2018-12-30T19:29:51.669Z,5.30
2018-12-30T19:32:23.462Z,5.30
2018-12-30T19:34:55.657Z,5.30
2018-12-30T19:37:26.267Z,5.30
2018-12-30T19:39:57.755Z,5.20
2018-12-30T19:42:29.674Z,5.20
2018-12-30T19:45:01.532Z,5.20
2018-12-30T19:47:33.410Z,5.20
2018-12-30T19:50:06.928Z,5.20
2018-12-30T19:52:38.007Z,5.20
2018-12-30T19:55:08.901Z,5.20
2018-12-30T19:57:40.165Z,5.20
2018-12-30T20:00:12.488Z,5.10
2018-12-30T20:02:43.506Z,5.20
2018-12-30T20:05:15.018Z,5.20
2018-12-30T20:07:48.191Z,5.10
2018-12-30T20:10:19.723Z,5.10
2018-12-30T20:12:50.116Z,5.10
2018-12-30T20:15:22.199Z,5.10
2018-12-30T20:17:53.188Z,5.10
2018-12-30T20:20:24.287Z,5.10
2018-12-30T20:22:55.531Z,5.10
2018-12-30T20:25:26.406Z,5.10
2018-12-30T20:27:57.930Z,5.10
2018-12-30T20:30:29.217Z,5.10
2018-12-30T20:32:59.671Z,5.00
2018-12-30T20:35:30.360Z,5.00
2018-12-30T20:38:02.081Z,5.00
2018-12-30T20:40:33.990Z,5.00
2018-12-30T20:43:04.596Z,5.00
2018-12-30T20:45:35.521Z,5.00
2018-12-30T20:48:06.595Z,5.00
2018-12-30T20:50:37.515Z,5.00
2018-12-30T20:53:08.654Z,5.00
2018-12-30T20:55:40.458Z,5.00
2018-12-30T20:58:13.158Z,4.90
2018-12-30T21:00:43.735Z,5.00
2018-12-30T21:03:16.176Z,4.90
2018-12-30T21:05:47.238Z,5.00
2018-12-30T21:08:17.717Z,5.00
2018-12-30T21:10:59.912Z,4.90
2018-12-30T21:13:30.442Z,4.90
2018-12-30T21:16:01.670Z,4.90
2018-12-30T21:18:33.502Z,4.90
2018-12-30T21:21:06.842Z,4.90
2018-12-30T21:23:38.310Z,4.90
2018-12-30T21:26:11.138Z,4.90
2018-12-30T21:28:46.506Z,4.90
2018-12-30T21:31:18.940Z,4.90
2018-12-30T21:33:52.990Z,4.90
2018-12-30T21:36:26.672Z,4.90
2018-12-30T21:38:57.930Z,4.90
2018-12-30T21:41:31.288Z,4.90
2018-12-30T21:44:04.621Z,4.80
2018-12-30T21:46:36.644Z,4.80
2018-12-30T21:49:07.430Z,4.80
2018-12-30T21:51:42.431Z,4.80
2018-12-30T21:54:13.371Z,4.80
2018-12-30T21:56:54.574Z,4.70
2018-12-30T21:59:22.499Z,4.70
2018-12-30T22:01:55.707Z,4.70
2018-12-30T22:04:29.050Z,4.70
2018-12-30T22:07:01.981Z,4.70
2018-12-30T22:09:34.511Z,4.70
2018-12-30T22:12:08.353Z,4.70
2018-12-30T22:14:40.154Z,4.70
2018-12-30T22:17:14.229Z,4.70
2018-12-30T22:19:45.680Z,4.70
2018-12-30T22:22:21.283Z,4.70
2018-12-30T22:24:53.161Z,4.70
2018-12-30T22:27:24.786Z,4.70
2018-12-30T22:29:56.089Z,4.70
2018-12-30T22:32:37.113Z,4.60
2018-12-30T22:35:08.880Z,4.70
2018-12-30T22:37:39.870Z,4.70
2018-12-30T22:40:11.121Z,4.60
2018-12-30T22:42:43.398Z,4.70
2018-12-30T22:45:14.848Z,4.60
2018-12-30T22:47:47.123Z,4.60
2018-12-30T22:50:18.632Z,4.60
2018-12-30T22:52:51.008Z,4.60
2018-12-30T22:55:21.426Z,4.50
2018-12-30T22:57:51.873Z,4.60
2018-12-30T23:00:40.411Z,4.50
2018-12-30T23:03:11.333Z,4.50
2018-12-30T23:05:42.545Z,4.50
2018-12-30T23:08:13.706Z,4.50
2018-12-30T23:10:56.242Z,4.50
2018-12-30T23:13:28.670Z,4.50
2018-12-30T23:15:59.468Z,4.50
2018-12-30T23:18:31.208Z,4.50
2018-12-30T23:21:03.027Z,4.50
2018-12-30T23:23:33.731Z,4.50
2018-12-30T23:26:04.150Z,4.50
2018-12-30T23:28:34.742Z,4.50
2018-12-30T23:31:05.634Z,4.40
2018-12-30T23:33:36.091Z,4.40
2018-12-30T23:36:06.396Z,4.40
2018-12-30T23:38:37.567Z,4.40
2018-12-30T23:41:09.171Z,4.40
2018-12-30T23:43:40.148Z,4.40
2018-12-30T23:46:11.119Z,4.30
2018-12-30T23:48:41.764Z,4.40
2018-12-30T23:51:12.761Z,4.40
2018-12-30T23:53:43.913Z,4.40
2018-12-30T23:56:16.158Z,4.30
2018-12-30T23:58:46.983Z,4.40
